sensor_id;sensor_type;location;lat;lon;timestamp;P1;durP1;ratioP1;P2;durP2;ratioP2
57923;SDS011;43737;50.632;3.070;2022-08-11T00:01:14;4.07;;;3.60;;
57923;SDS011;43737;50.632;3.070;2022-08-11T00:03:42;7.63;;;3.50;;
57923;SDS011;43737;50.632;3.070;2022-08-11T00:06:09;10.13;;;3.83;;
57923;SDS011;43737;50.632;3.070;2022-08-11T00:08:38;8.85;;;3.63;;
57923;SDS011;43737;50.632;3.070;2022-08-11T00:11:05;6.32;;;3.90;;
57923;SDS011;43737;50.632;3.070;2022-08-11T00:13:50;5.63;;;3.53;;
57923;SDS011;43737;50.632;3.070;2022-08-11T00:16:21;9.52;;;4.32;;
57923;SDS011;43737;50.632;3.070;2022-08-11T00:18:49;8.43;;;3.72;;
57923;SDS011;43737;50.632;3.070;2022-08-11T00:21:15;6.55;;;3.80;;
57923;SDS011;43737;50.632;3.070;2022-08-11T00:23:43;7.07;;;3.70;;
57923;SDS011;43737;50.632;3.070;2022-08-11T00:26:10;7.38;;;3.53;;
57923;SDS011;43737;50.632;3.070;2022-08-11T00:28:37;10.60;;;3.50;;
57923;SDS011;43737;50.632;3.070;2022-08-11T00:31:04;10.73;;;4.25;;
57923;SDS011;43737;50.632;3.070;2022-08-11T00:33:32;7.63;;;3.75;;
57923;SDS011;43737;50.632;3.070;2022-08-11T00:35:58;14.18;;;3.72;;
57923;SDS011;43737;50.632;3.070;2022-08-11T00:38:27;5.85;;;3.00;;
57923;SDS011;43737;50.632;3.070;2022-08-11T00:40:56;8.23;;;3.47;;
57923;SDS011;43737;50.632;3.070;2022-08-11T00:46:32;9.32;;;3.60;;
57923;SDS011;43737;50.632;3.070;2022-08-11T00:49:12;24.67;;;7.00;;
57923;SDS011;43737;50.632;3.070;2022-08-11T00:59:56;6.80;;;3.63;;
57923;SDS011;43737;50.632;3.070;2022-08-11T01:05:19;7.13;;;3.78;;
57923;SDS011;43737;50.632;3.070;2022-08-11T01:29:15;6.70;;;3.67;;
57923;SDS011;43737;50.632;3.070;2022-08-11T01:52:50;8.48;;;3.72;;
57923;SDS011;43737;50.632;3.070;2022-08-11T01:55:31;8.25;;;4.03;;
57923;SDS011;43737;50.632;3.070;2022-08-11T02:00:51;7.80;;;4.10;;
57923;SDS011;43737;50.632;3.070;2022-08-11T02:03:24;5.45;;;3.65;;
57923;SDS011;43737;50.632;3.070;2022-08-11T02:10:57;6.28;;;4.55;;
57923;SDS011;43737;50.632;3.070;2022-08-11T02:13:49;6.25;;;3.95;;
57923;SDS011;43737;50.632;3.070;2022-08-11T02:24:57;10.80;;;4.18;;
57923;SDS011;43737;50.632;3.070;2022-08-11T02:27:26;9.40;;;3.83;;
57923;SDS011;43737;50.632;3.070;2022-08-11T02:30:06;9.43;;;4.13;;
57923;SDS011;43737;50.632;3.070;2022-08-11T02:32:35;7.72;;;3.63;;
57923;SDS011;43737;50.632;3.070;2022-08-11T02:37:52;9.38;;;4.22;;
57923;SDS011;43737;50.632;3.070;2022-08-11T02:43:04;6.05;;;3.72;;
57923;SDS011;43737;50.632;3.070;2022-08-11T02:48:39;9.30;;;3.80;;
57923;SDS011;43737;50.632;3.070;2022-08-11T02:54:06;5.60;;;3.92;;
57923;SDS011;43737;50.632;3.070;2022-08-11T03:02:13;5.55;;;4.10;;
57923;SDS011;43737;50.632;3.070;2022-08-11T03:05:01;9.98;;;4.15;;
57923;SDS011;43737;50.632;3.070;2022-08-11T03:07:33;8.43;;;4.30;;
57923;SDS011;43737;50.632;3.070;2022-08-11T03:12:40;14.07;;;5.00;;
57923;SDS011;43737;50.632;3.070;2022-08-11T03:15:29;6.22;;;4.00;;
57923;SDS011;43737;50.632;3.070;2022-08-11T03:18:55;8.13;;;4.30;;
57923;SDS011;43737;50.632;3.070;2022-08-11T03:21:21;9.85;;;3.70;;
57923;SDS011;43737;50.632;3.070;2022-08-11T03:23:57;9.40;;;4.32;;
57923;SDS011;43737;50.632;3.070;2022-08-11T03:26:30;5.18;;;4.15;;
57923;SDS011;43737;50.632;3.070;2022-08-11T03:29:05;6.95;;;4.10;;
57923;SDS011;43737;50.632;3.070;2022-08-11T03:31:34;7.97;;;4.63;;
57923;SDS011;43737;50.632;3.070;2022-08-11T03:34:02;11.07;;;4.47;;
57923;SDS011;43737;50.632;3.070;2022-08-11T03:47:22;10.93;;;4.65;;
57923;SDS011;43737;50.632;3.070;2022-08-11T03:50:06;10.63;;;5.05;;
57923;SDS011;43737;50.632;3.070;2022-08-11T03:52:48;6.97;;;4.65;;
57923;SDS011;43737;50.632;3.070;2022-08-11T04:08:12;7.60;;;4.90;;
57923;SDS011;43737;50.632;3.070;2022-08-11T04:10:55;7.28;;;4.40;;
57923;SDS011;43737;50.632;3.070;2022-08-11T04:16:00;10.13;;;5.18;;
57923;SDS011;43737;50.632;3.070;2022-08-11T04:31:45;10.32;;;5.40;;
57923;SDS011;43737;50.632;3.070;2022-08-11T04:39:59;11.70;;;6.13;;
57923;SDS011;43737;50.632;3.070;2022-08-11T04:42:50;8.82;;;5.78;;
57923;SDS011;43737;50.632;3.070;2022-08-11T04:48:43;12.95;;;5.45;;
57923;SDS011;43737;50.632;3.070;2022-08-11T04:57:27;10.38;;;5.47;;
57923;SDS011;43737;50.632;3.070;2022-08-11T05:00:18;15.73;;;5.63;;
57923;SDS011;43737;50.632;3.070;2022-08-11T05:13:06;13.05;;;5.90;;
57923;SDS011;43737;50.632;3.070;2022-08-11T05:15:52;11.85;;;6.10;;
57923;SDS011;43737;50.632;3.070;2022-08-11T05:18:53;13.55;;;6.25;;
57923;SDS011;43737;50.632;3.070;2022-08-11T05:21:38;10.95;;;5.82;;
57923;SDS011;43737;50.632;3.070;2022-08-11T05:24:25;18.88;;;7.18;;
57923;SDS011;43737;50.632;3.070;2022-08-11T05:27:14;10.23;;;5.88;;
57923;SDS011;43737;50.632;3.070;2022-08-11T05:30:01;15.65;;;6.15;;
57923;SDS011;43737;50.632;3.070;2022-08-11T05:32:51;11.85;;;5.75;;
57923;SDS011;43737;50.632;3.070;2022-08-11T05:35:45;12.82;;;6.25;;
57923;SDS011;43737;50.632;3.070;2022-08-11T05:38:15;15.77;;;6.80;;
57923;SDS011;43737;50.632;3.070;2022-08-11T05:41:02;11.13;;;5.72;;
57923;SDS011;43737;50.632;3.070;2022-08-11T05:43:47;12.52;;;5.93;;
57923;SDS011;43737;50.632;3.070;2022-08-11T05:46:42;12.77;;;6.22;;
57923;SDS011;43737;50.632;3.070;2022-08-11T05:49:30;11.18;;;6.10;;
57923;SDS011;43737;50.632;3.070;2022-08-11T05:52:16;10.32;;;6.18;;
57923;SDS011;43737;50.632;3.070;2022-08-11T05:55:02;11.05;;;5.97;;
57923;SDS011;43737;50.632;3.070;2022-08-11T06:00:12;15.23;;;6.60;;
57923;SDS011;43737;50.632;3.070;2022-08-11T06:02:46;14.27;;;6.30;;
57923;SDS011;43737;50.632;3.070;2022-08-11T06:05:13;13.30;;;6.32;;
57923;SDS011;43737;50.632;3.070;2022-08-11T06:07:41;14.65;;;6.10;;
57923;SDS011;43737;50.632;3.070;2022-08-11T06:10:07;17.65;;;5.72;;
57923;SDS011;43737;50.632;3.070;2022-08-11T06:12:34;14.77;;;6.15;;
57923;SDS011;43737;50.632;3.070;2022-08-11T06:15:10;10.57;;;5.80;;
57923;SDS011;43737;50.632;3.070;2022-08-11T06:17:44;18.92;;;6.43;;
57923;SDS011;43737;50.632;3.070;2022-08-11T06:20:11;20.05;;;7.43;;
57923;SDS011;43737;50.632;3.070;2022-08-11T06:22:42;16.20;;;6.53;;
57923;SDS011;43737;50.632;3.070;2022-08-11T06:25:09;21.17;;;6.75;;
57923;SDS011;43737;50.632;3.070;2022-08-11T06:27:37;17.63;;;6.72;;
57923;SDS011;43737;50.632;3.070;2022-08-11T06:30:03;13.20;;;6.43;;
57923;SDS011;43737;50.632;3.070;2022-08-11T06:32:37;31.08;;;7.38;;
57923;SDS011;43737;50.632;3.070;2022-08-11T06:35:24;16.35;;;7.10;;
57923;SDS011;43737;50.632;3.070;2022-08-11T06:42:57;21.23;;;7.35;;
57923;SDS011;43737;50.632;3.070;2022-08-11T06:45:29;32.65;;;9.63;;
57923;SDS011;43737;50.632;3.070;2022-08-11T06:47:56;28.95;;;7.75;;
57923;SDS011;43737;50.632;3.070;2022-08-11T06:50:27;13.00;;;6.28;;
57923;SDS011;43737;50.632;3.070;2022-08-11T06:53:14;9.88;;;5.70;;
57923;SDS011;43737;50.632;3.070;2022-08-11T06:55:41;13.95;;;6.15;;
57923;SDS011;43737;50.632;3.070;2022-08-11T06:58:31;10.38;;;5.13;;
57923;SDS011;43737;50.632;3.070;2022-08-11T07:01:54;11.55;;;5.20;;
57923;SDS011;43737;50.632;3.070;2022-08-11T07:04:11;10.40;;;4.72;;
57923;SDS011;43737;50.632;3.070;2022-08-11T07:12:20;10.73;;;5.10;;
57923;SDS011;43737;50.632;3.070;2022-08-11T07:15:09;15.77;;;5.07;;
57923;SDS011;43737;50.632;3.070;2022-08-11T07:17:54;16.00;;;5.55;;
57923;SDS011;43737;50.632;3.070;2022-08-11T07:20:41;14.63;;;5.38;;
57923;SDS011;43737;50.632;3.070;2022-08-11T07:23:28;13.02;;;4.95;;
57923;SDS011;43737;50.632;3.070;2022-08-11T07:26:15;13.50;;;5.53;;
57923;SDS011;43737;50.632;3.070;2022-08-11T07:29:00;13.52;;;5.38;;
57923;SDS011;43737;50.632;3.070;2022-08-11T07:34:05;12.07;;;4.97;;
57923;SDS011;43737;50.632;3.070;2022-08-11T07:36:41;9.00;;;4.72;;
57923;SDS011;43737;50.632;3.070;2022-08-11T07:39:21;7.55;;;4.88;;
57923;SDS011;43737;50.632;3.070;2022-08-11T07:41:47;13.13;;;5.50;;
57923;SDS011;43737;50.632;3.070;2022-08-11T07:44:14;9.25;;;4.93;;
57923;SDS011;43737;50.632;3.070;2022-08-11T07:46:41;11.65;;;4.82;;
57923;SDS011;43737;50.632;3.070;2022-08-11T07:49:27;13.07;;;4.65;;
57923;SDS011;43737;50.632;3.070;2022-08-11T07:52:12;12.20;;;6.28;;
57923;SDS011;43737;50.632;3.070;2022-08-11T07:55:01;9.18;;;5.15;;
57923;SDS011;43737;50.632;3.070;2022-08-11T07:57:28;9.07;;;4.78;;
57923;SDS011;43737;50.632;3.070;2022-08-11T08:00:13;8.57;;;4.30;;
57923;SDS011;43737;50.632;3.070;2022-08-11T08:05:44;8.73;;;4.80;;
57923;SDS011;43737;50.632;3.070;2022-08-11T08:08:29;12.13;;;4.80;;
57923;SDS011;43737;50.632;3.070;2022-08-11T08:11:14;10.00;;;4.43;;
57923;SDS011;43737;50.632;3.070;2022-08-11T08:16:44;6.28;;;4.55;;
57923;SDS011;43737;50.632;3.070;2022-08-11T08:19:29;7.18;;;4.43;;
57923;SDS011;43737;50.632;3.070;2022-08-11T08:21:56;12.07;;;4.18;;
57923;SDS011;43737;50.632;3.070;2022-08-11T08:24:22;8.18;;;3.90;;
57923;SDS011;43737;50.632;3.070;2022-08-11T08:26:49;11.13;;;4.55;;
57923;SDS011;43737;50.632;3.070;2022-08-11T08:29:25;12.63;;;4.80;;
57923;SDS011;43737;50.632;3.070;2022-08-11T08:32:11;7.93;;;3.58;;
57923;SDS011;43737;50.632;3.070;2022-08-11T08:34:37;8.90;;;4.45;;
57923;SDS011;43737;50.632;3.070;2022-08-11T08:37:05;9.65;;;4.05;;
57923;SDS011;43737;50.632;3.070;2022-08-11T08:39:31;8.13;;;3.47;;
57923;SDS011;43737;50.632;3.070;2022-08-11T08:41:58;12.57;;;3.83;;
57923;SDS011;43737;50.632;3.070;2022-08-11T08:44:25;5.72;;;3.72;;
57923;SDS011;43737;50.632;3.070;2022-08-11T08:46:55;7.72;;;4.55;;
57923;SDS011;43737;50.632;3.070;2022-08-11T08:49:22;6.15;;;3.35;;
57923;SDS011;43737;50.632;3.070;2022-08-11T08:51:51;7.88;;;3.35;;
57923;SDS011;43737;50.632;3.070;2022-08-11T08:54:19;5.80;;;3.63;;
57923;SDS011;43737;50.632;3.070;2022-08-11T08:56:46;7.85;;;3.70;;
57923;SDS011;43737;50.632;3.070;2022-08-11T08:59:13;6.15;;;3.28;;
57923;SDS011;43737;50.632;3.070;2022-08-11T09:04:12;9.25;;;3.60;;
57923;SDS011;43737;50.632;3.070;2022-08-11T09:06:40;9.15;;;4.10;;
57923;SDS011;43737;50.632;3.070;2022-08-11T09:09:09;6.15;;;3.58;;
57923;SDS011;43737;50.632;3.070;2022-08-11T09:11:39;7.10;;;3.60;;
57923;SDS011;43737;50.632;3.070;2022-08-11T09:14:22;8.90;;;3.08;;
57923;SDS011;43737;50.632;3.070;2022-08-11T09:16:49;6.47;;;3.33;;
57923;SDS011;43737;50.632;3.070;2022-08-11T09:19:16;8.15;;;3.65;;
57923;SDS011;43737;50.632;3.070;2022-08-11T09:21:44;5.50;;;3.28;;
57923;SDS011;43737;50.632;3.070;2022-08-11T09:24:30;6.82;;;3.35;;
57923;SDS011;43737;50.632;3.070;2022-08-11T09:27:15;6.13;;;3.40;;
57923;SDS011;43737;50.632;3.070;2022-08-11T09:29:42;4.88;;;3.08;;
57923;SDS011;43737;50.632;3.070;2022-08-11T09:32:09;5.45;;;3.42;;
57923;SDS011;43737;50.632;3.070;2022-08-11T09:34:37;6.45;;;3.03;;
57923;SDS011;43737;50.632;3.070;2022-08-11T09:37:03;8.38;;;3.30;;
57923;SDS011;43737;50.632;3.070;2022-08-11T09:39:48;14.48;;;3.80;;
57923;SDS011;43737;50.632;3.070;2022-08-11T09:42:33;23.48;;;4.90;;
57923;SDS011;43737;50.632;3.070;2022-08-11T09:45:19;11.82;;;3.40;;
57923;SDS011;43737;50.632;3.070;2022-08-11T09:47:45;10.93;;;3.97;;
57923;SDS011;43737;50.632;3.070;2022-08-11T09:50:13;5.45;;;4.45;;
57923;SDS011;43737;50.632;3.070;2022-08-11T09:52:41;8.93;;;3.38;;
57923;SDS011;43737;50.632;3.070;2022-08-11T09:55:09;5.95;;;3.20;;
57923;SDS011;43737;50.632;3.070;2022-08-11T09:57:39;9.30;;;2.97;;
57923;SDS011;43737;50.632;3.070;2022-08-11T10:00:28;5.03;;;3.10;;
57923;SDS011;43737;50.632;3.070;2022-08-11T10:02:55;7.93;;;3.13;;
57923;SDS011;43737;50.632;3.070;2022-08-11T10:05:21;9.35;;;3.47;;
57923;SDS011;43737;50.632;3.070;2022-08-11T10:08:18;6.68;;;3.28;;
57923;SDS011;43737;50.632;3.070;2022-08-11T10:10:45;6.82;;;3.40;;
57923;SDS011;43737;50.632;3.070;2022-08-11T10:13:16;8.10;;;3.08;;
57923;SDS011;43737;50.632;3.070;2022-08-11T10:15:43;5.97;;;3.30;;
57923;SDS011;43737;50.632;3.070;2022-08-11T10:18:14;6.35;;;3.25;;
57923;SDS011;43737;50.632;3.070;2022-08-11T10:21:11;10.13;;;3.05;;
57923;SDS011;43737;50.632;3.070;2022-08-11T10:23:37;7.25;;;2.95;;
57923;SDS011;43737;50.632;3.070;2022-08-11T10:26:23;9.07;;;2.85;;
57923;SDS011;43737;50.632;3.070;2022-08-11T10:29:08;5.70;;;3.13;;
57923;SDS011;43737;50.632;3.070;2022-08-11T10:31:54;7.57;;;2.70;;
57923;SDS011;43737;50.632;3.070;2022-08-11T10:34:39;7.72;;;3.30;;
57923;SDS011;43737;50.632;3.070;2022-08-11T10:37:05;3.40;;;3.10;;
57923;SDS011;43737;50.632;3.070;2022-08-11T10:39:31;4.85;;;3.20;;
57923;SDS011;43737;50.632;3.070;2022-08-11T10:41:59;5.75;;;2.80;;
57923;SDS011;43737;50.632;3.070;2022-08-11T10:44:45;9.35;;;2.97;;
57923;SDS011;43737;50.632;3.070;2022-08-11T10:47:12;4.32;;;3.28;;
57923;SDS011;43737;50.632;3.070;2022-08-11T10:49:58;6.95;;;3.33;;
57923;SDS011;43737;50.632;3.070;2022-08-11T10:52:43;11.00;;;2.83;;
57923;SDS011;43737;50.632;3.070;2022-08-11T10:55:30;4.50;;;2.97;;
57923;SDS011;43737;50.632;3.070;2022-08-11T10:58:15;5.78;;;3.47;;
57923;SDS011;43737;50.632;3.070;2022-08-11T11:01:01;4.55;;;3.03;;
57923;SDS011;43737;50.632;3.070;2022-08-11T11:03:29;5.07;;;2.78;;
57923;SDS011;43737;50.632;3.070;2022-08-11T11:06:06;5.70;;;3.08;;
57923;SDS011;43737;50.632;3.070;2022-08-11T11:08:36;6.03;;;2.80;;
57923;SDS011;43737;50.632;3.070;2022-08-11T11:11:22;8.40;;;2.90;;
57923;SDS011;43737;50.632;3.070;2022-08-11T11:14:09;8.57;;;3.08;;
57923;SDS011;43737;50.632;3.070;2022-08-11T11:16:55;6.20;;;3.13;;
57923;SDS011;43737;50.632;3.070;2022-08-11T11:19:37;6.18;;;2.90;;
57923;SDS011;43737;50.632;3.070;2022-08-11T11:22:03;5.90;;;2.80;;
57923;SDS011;43737;50.632;3.070;2022-08-11T11:27:59;6.82;;;3.55;;
57923;SDS011;43737;50.632;3.070;2022-08-11T11:30:32;6.07;;;2.88;;
57923;SDS011;43737;50.632;3.070;2022-08-11T11:33:07;4.13;;;2.97;;
57923;SDS011;43737;50.632;3.070;2022-08-11T11:35:48;5.07;;;2.70;;
57923;SDS011;43737;50.632;3.070;2022-08-11T11:38:18;5.22;;;3.13;;
57923;SDS011;43737;50.632;3.070;2022-08-11T11:40:44;5.38;;;2.72;;
57923;SDS011;43737;50.632;3.070;2022-08-11T11:43:30;3.28;;;2.85;;
57923;SDS011;43737;50.632;3.070;2022-08-11T11:45:58;3.17;;;2.92;;
57923;SDS011;43737;50.632;3.070;2022-08-11T11:48:24;6.72;;;3.03;;
57923;SDS011;43737;50.632;3.070;2022-08-11T11:50:52;7.65;;;3.30;;
57923;SDS011;43737;50.632;3.070;2022-08-11T11:53:19;4.43;;;3.53;;
57923;SDS011;43737;50.632;3.070;2022-08-11T11:55:46;3.47;;;2.78;;
57923;SDS011;43737;50.632;3.070;2022-08-11T11:58:12;3.97;;;3.30;;
57923;SDS011;43737;50.632;3.070;2022-08-11T12:00:57;6.57;;;3.33;;
57923;SDS011;43737;50.632;3.070;2022-08-11T12:03:44;7.43;;;3.20;;
57923;SDS011;43737;50.632;3.070;2022-08-11T12:06:11;4.18;;;2.83;;
57923;SDS011;43737;50.632;3.070;2022-08-11T12:08:38;3.53;;;3.30;;
57923;SDS011;43737;50.632;3.070;2022-08-11T12:11:05;5.32;;;2.80;;
57923;SDS011;43737;50.632;3.070;2022-08-11T12:13:51;5.18;;;2.97;;
57923;SDS011;43737;50.632;3.070;2022-08-11T12:16:17;6.22;;;3.20;;
57923;SDS011;43737;50.632;3.070;2022-08-11T12:18:45;22.48;;;5.18;;
57923;SDS011;43737;50.632;3.070;2022-08-11T12:21:12;3.75;;;3.00;;
57923;SDS011;43737;50.632;3.070;2022-08-11T12:23:39;7.18;;;3.42;;
57923;SDS011;43737;50.632;3.070;2022-08-11T12:26:24;7.82;;;3.35;;
57923;SDS011;43737;50.632;3.070;2022-08-11T12:29:09;4.05;;;3.08;;
57923;SDS011;43737;50.632;3.070;2022-08-11T12:31:36;7.00;;;3.30;;
57923;SDS011;43737;50.632;3.070;2022-08-11T12:34:07;5.13;;;2.97;;
57923;SDS011;43737;50.632;3.070;2022-08-11T12:36:36;7.40;;;2.75;;
57923;SDS011;43737;50.632;3.070;2022-08-11T12:39:06;14.70;;;4.18;;
57923;SDS011;43737;50.632;3.070;2022-08-11T12:41:34;7.55;;;3.20;;
57923;SDS011;43737;50.632;3.070;2022-08-11T12:44:19;4.68;;;3.30;;
57923;SDS011;43737;50.632;3.070;2022-08-11T12:47:05;5.25;;;2.88;;
57923;SDS011;43737;50.632;3.070;2022-08-11T12:49:33;3.72;;;2.80;;
57923;SDS011;43737;50.632;3.070;2022-08-11T12:52:21;6.18;;;2.72;;
57923;SDS011;43737;50.632;3.070;2022-08-11T12:54:50;3.08;;;2.53;;
57923;SDS011;43737;50.632;3.070;2022-08-11T13:00:09;5.68;;;2.90;;
57923;SDS011;43737;50.632;3.070;2022-08-11T13:02:54;3.17;;;2.80;;
57923;SDS011;43737;50.632;3.070;2022-08-11T13:05:42;3.20;;;2.90;;
57923;SDS011;43737;50.632;3.070;2022-08-11T13:08:11;8.10;;;2.78;;
57923;SDS011;43737;50.632;3.070;2022-08-11T13:10:40;4.95;;;2.65;;
57923;SDS011;43737;50.632;3.070;2022-08-11T13:13:25;7.28;;;2.88;;
57923;SDS011;43737;50.632;3.070;2022-08-11T13:15:51;6.75;;;2.30;;
57923;SDS011;43737;50.632;3.070;2022-08-11T13:18:18;2.63;;;2.42;;
57923;SDS011;43737;50.632;3.070;2022-08-11T13:20:47;4.05;;;2.55;;
57923;SDS011;43737;50.632;3.070;2022-08-11T13:23:14;4.65;;;2.60;;
57923;SDS011;43737;50.632;3.070;2022-08-11T13:25:40;2.58;;;2.10;;
57923;SDS011;43737;50.632;3.070;2022-08-11T13:28:08;4.70;;;2.63;;
57923;SDS011;43737;50.632;3.070;2022-08-11T13:30:35;3.20;;;2.50;;
57923;SDS011;43737;50.632;3.070;2022-08-11T13:33:20;2.88;;;2.38;;
57923;SDS011;43737;50.632;3.070;2022-08-11T13:35:47;4.28;;;2.55;;
57923;SDS011;43737;50.632;3.070;2022-08-11T13:38:15;3.15;;;2.35;;
57923;SDS011;43737;50.632;3.070;2022-08-11T13:40:41;2.72;;;2.33;;
57923;SDS011;43737;50.632;3.070;2022-08-11T13:43:08;3.85;;;2.80;;
57923;SDS011;43737;50.632;3.070;2022-08-11T13:45:35;3.35;;;2.50;;
57923;SDS011;43737;50.632;3.070;2022-08-11T13:48:02;3.72;;;3.03;;
57923;SDS011;43737;50.632;3.070;2022-08-11T13:50:31;7.15;;;2.88;;
57923;SDS011;43737;50.632;3.070;2022-08-11T13:53:16;6.57;;;2.50;;
57923;SDS011;43737;50.632;3.070;2022-08-11T13:55:45;7.25;;;2.65;;
57923;SDS011;43737;50.632;3.070;2022-08-11T13:58:11;2.40;;;2.20;;
57923;SDS011;43737;50.632;3.070;2022-08-11T14:00:38;3.78;;;2.88;;
57923;SDS011;43737;50.632;3.070;2022-08-11T14:03:08;4.65;;;2.85;;
57923;SDS011;43737;50.632;3.070;2022-08-11T14:05:39;3.08;;;2.42;;
57923;SDS011;43737;50.632;3.070;2022-08-11T14:08:08;5.97;;;2.83;;
57923;SDS011;43737;50.632;3.070;2022-08-11T14:10:36;3.55;;;2.60;;
57923;SDS011;43737;50.632;3.070;2022-08-11T14:13:06;3.03;;;2.47;;
57923;SDS011;43737;50.632;3.070;2022-08-11T14:15:52;2.50;;;2.08;;
57923;SDS011;43737;50.632;3.070;2022-08-11T14:20:45;7.43;;;2.60;;
57923;SDS011;43737;50.632;3.070;2022-08-11T14:23:42;6.20;;;2.90;;
57923;SDS011;43737;50.632;3.070;2022-08-11T14:26:09;4.53;;;2.40;;
57923;SDS011;43737;50.632;3.070;2022-08-11T14:28:48;3.63;;;2.60;;
57923;SDS011;43737;50.632;3.070;2022-08-11T14:31:17;2.88;;;2.50;;
57923;SDS011;43737;50.632;3.070;2022-08-11T14:33:43;4.32;;;2.70;;
57923;SDS011;43737;50.632;3.070;2022-08-11T14:36:10;5.90;;;3.38;;
57923;SDS011;43737;50.632;3.070;2022-08-11T14:38:36;7.13;;;3.15;;
57923;SDS011;43737;50.632;3.070;2022-08-11T14:41:03;3.13;;;2.55;;
57923;SDS011;43737;50.632;3.070;2022-08-11T14:43:49;6.20;;;2.63;;
57923;SDS011;43737;50.632;3.070;2022-08-11T14:46:34;4.80;;;2.67;;
57923;SDS011;43737;50.632;3.070;2022-08-11T14:49:19;2.72;;;2.42;;
57923;SDS011;43737;50.632;3.070;2022-08-11T14:51:47;5.68;;;2.42;;
57923;SDS011;43737;50.632;3.070;2022-08-11T14:54:13;2.78;;;2.25;;
57923;SDS011;43737;50.632;3.070;2022-08-11T14:56:58;3.63;;;2.40;;
57923;SDS011;43737;50.632;3.070;2022-08-11T14:59:24;4.72;;;2.30;;
57923;SDS011;43737;50.632;3.070;2022-08-11T15:01:50;5.72;;;2.90;;
57923;SDS011;43737;50.632;3.070;2022-08-11T15:04:35;5.72;;;2.75;;
57923;SDS011;43737;50.632;3.070;2022-08-11T15:07:03;3.97;;;2.65;;
57923;SDS011;43737;50.632;3.070;2022-08-11T15:09:29;2.80;;;2.35;;
57923;SDS011;43737;50.632;3.070;2022-08-11T15:11:55;4.78;;;2.53;;
57923;SDS011;43737;50.632;3.070;2022-08-11T15:14:34;3.47;;;2.75;;
57923;SDS011;43737;50.632;3.070;2022-08-11T15:17:19;4.75;;;2.60;;
57923;SDS011;43737;50.632;3.070;2022-08-11T15:19:46;4.97;;;2.70;;
57923;SDS011;43737;50.632;3.070;2022-08-11T15:22:31;7.68;;;2.80;;
57923;SDS011;43737;50.632;3.070;2022-08-11T15:25:16;6.40;;;2.85;;
57923;SDS011;43737;50.632;3.070;2022-08-11T15:27:44;8.60;;;3.38;;
57923;SDS011;43737;50.632;3.070;2022-08-11T15:30:29;6.03;;;3.30;;
57923;SDS011;43737;50.632;3.070;2022-08-11T15:33:15;8.68;;;3.22;;
57923;SDS011;43737;50.632;3.070;2022-08-11T15:36:02;7.60;;;3.53;;
57923;SDS011;43737;50.632;3.070;2022-08-11T15:38:59;10.75;;;3.17;;
57923;SDS011;43737;50.632;3.070;2022-08-11T15:42:10;3.33;;;2.78;;
57923;SDS011;43737;50.632;3.070;2022-08-11T15:44:35;3.63;;;2.63;;
57923;SDS011;43737;50.632;3.070;2022-08-11T15:47:21;3.45;;;2.90;;
57923;SDS011;43737;50.632;3.070;2022-08-11T15:49:51;4.13;;;2.70;;
57923;SDS011;43737;50.632;3.070;2022-08-11T15:52:20;7.30;;;3.10;;
57923;SDS011;43737;50.632;3.070;2022-08-11T15:54:47;3.15;;;2.70;;
57923;SDS011;43737;50.632;3.070;2022-08-11T15:57:14;8.45;;;2.83;;
57923;SDS011;43737;50.632;3.070;2022-08-11T16:00:04;6.55;;;2.95;;
57923;SDS011;43737;50.632;3.070;2022-08-11T16:02:49;4.50;;;3.72;;
57923;SDS011;43737;50.632;3.070;2022-08-11T16:05:35;6.40;;;3.17;;
57923;SDS011;43737;50.632;3.070;2022-08-11T16:08:01;5.32;;;3.03;;
57923;SDS011;43737;50.632;3.070;2022-08-11T16:10:28;5.75;;;2.95;;
57923;SDS011;43737;50.632;3.070;2022-08-11T16:15:39;4.38;;;3.20;;
57923;SDS011;43737;50.632;3.070;2022-08-11T16:21:18;8.65;;;3.53;;
57923;SDS011;43737;50.632;3.070;2022-08-11T16:23:48;6.30;;;3.00;;
57923;SDS011;43737;50.632;3.070;2022-08-11T16:26:16;8.27;;;3.03;;
57923;SDS011;43737;50.632;3.070;2022-08-11T16:28:43;5.55;;;2.75;;
57923;SDS011;43737;50.632;3.070;2022-08-11T16:31:09;5.20;;;3.05;;
57923;SDS011;43737;50.632;3.070;2022-08-11T16:33:37;6.32;;;3.00;;
57923;SDS011;43737;50.632;3.070;2022-08-11T16:36:05;8.77;;;3.17;;
57923;SDS011;43737;50.632;3.070;2022-08-11T16:38:51;9.32;;;3.55;;
57923;SDS011;43737;50.632;3.070;2022-08-11T16:41:18;6.03;;;3.13;;
57923;SDS011;43737;50.632;3.070;2022-08-11T16:44:06;4.50;;;3.28;;
57923;SDS011;43737;50.632;3.070;2022-08-11T16:46:51;5.35;;;3.03;;
57923;SDS011;43737;50.632;3.070;2022-08-11T16:49:32;7.07;;;3.20;;
57923;SDS011;43737;50.632;3.070;2022-08-11T16:52:00;4.80;;;3.35;;
57923;SDS011;43737;50.632;3.070;2022-08-11T16:54:31;5.25;;;3.22;;
57923;SDS011;43737;50.632;3.070;2022-08-11T16:56:57;6.65;;;3.08;;
57923;SDS011;43737;50.632;3.070;2022-08-11T16:59:45;7.65;;;3.42;;
57923;SDS011;43737;50.632;3.070;2022-08-11T17:02:14;5.90;;;3.42;;
57923;SDS011;43737;50.632;3.070;2022-08-11T17:05:14;6.13;;;3.00;;
57923;SDS011;43737;50.632;3.070;2022-08-11T17:08:01;3.38;;;3.08;;
57923;SDS011;43737;50.632;3.070;2022-08-11T17:10:50;8.45;;;3.58;;
57923;SDS011;43737;50.632;3.070;2022-08-11T17:13:41;5.55;;;3.40;;
57923;SDS011;43737;50.632;3.070;2022-08-11T17:16:10;5.80;;;3.75;;
57923;SDS011;43737;50.632;3.070;2022-08-11T17:18:41;9.40;;;3.78;;
57923;SDS011;43737;50.632;3.070;2022-08-11T17:21:10;7.47;;;4.78;;
57923;SDS011;43737;50.632;3.070;2022-08-11T17:23:37;6.05;;;4.03;;
57923;SDS011;43737;50.632;3.070;2022-08-11T17:26:11;4.13;;;3.70;;
57923;SDS011;43737;50.632;3.070;2022-08-11T17:28:37;8.95;;;3.90;;
57923;SDS011;43737;50.632;3.070;2022-08-11T17:31:06;5.82;;;3.72;;
57923;SDS011;43737;50.632;3.070;2022-08-11T17:33:52;5.53;;;3.67;;
57923;SDS011;43737;50.632;3.070;2022-08-11T17:36:39;8.73;;;3.60;;
57923;SDS011;43737;50.632;3.070;2022-08-11T17:39:06;7.70;;;3.28;;
57923;SDS011;43737;50.632;3.070;2022-08-11T17:41:33;7.28;;;3.70;;
57923;SDS011;43737;50.632;3.070;2022-08-11T17:44:19;5.78;;;3.65;;
57923;SDS011;43737;50.632;3.070;2022-08-11T17:47:04;6.82;;;3.35;;
57923;SDS011;43737;50.632;3.070;2022-08-11T17:52:15;6.90;;;3.13;;
57923;SDS011;43737;50.632;3.070;2022-08-11T17:57:45;9.18;;;3.58;;
57923;SDS011;43737;50.632;3.070;2022-08-11T18:00:29;5.07;;;3.15;;
57923;SDS011;43737;50.632;3.070;2022-08-11T18:02:56;5.45;;;3.00;;
57923;SDS011;43737;50.632;3.070;2022-08-11T18:05:43;5.88;;;2.88;;
57923;SDS011;43737;50.632;3.070;2022-08-11T18:08:11;8.13;;;3.72;;
57923;SDS011;43737;50.632;3.070;2022-08-11T18:10:56;5.95;;;3.55;;
57923;SDS011;43737;50.632;3.070;2022-08-11T18:13:42;9.60;;;3.28;;
57923;SDS011;43737;50.632;3.070;2022-08-11T18:16:28;4.53;;;2.60;;
57923;SDS011;43737;50.632;3.070;2022-08-11T18:22:00;5.53;;;3.22;;
57923;SDS011;43737;50.632;3.070;2022-08-11T18:24:47;6.93;;;3.25;;
57923;SDS011;43737;50.632;3.070;2022-08-11T18:27:33;7.60;;;3.05;;
57923;SDS011;43737;50.632;3.070;2022-08-11T18:30:19;4.13;;;3.10;;
57923;SDS011;43737;50.632;3.070;2022-08-11T18:33:04;7.40;;;3.10;;
57923;SDS011;43737;50.632;3.070;2022-08-11T18:35:52;3.63;;;2.95;;
57923;SDS011;43737;50.632;3.070;2022-08-11T18:38:38;4.45;;;3.35;;
57923;SDS011;43737;50.632;3.070;2022-08-11T18:41:24;4.85;;;3.30;;
57923;SDS011;43737;50.632;3.070;2022-08-11T18:44:10;9.25;;;3.33;;
57923;SDS011;43737;50.632;3.070;2022-08-11T18:46:57;3.65;;;3.28;;
57923;SDS011;43737;50.632;3.070;2022-08-11T18:49:42;7.30;;;3.72;;
57923;SDS011;43737;50.632;3.070;2022-08-11T18:52:28;9.02;;;2.88;;
57923;SDS011;43737;50.632;3.070;2022-08-11T18:55:16;5.32;;;3.42;;
57923;SDS011;43737;50.632;3.070;2022-08-11T18:58:02;7.38;;;3.17;;
57923;SDS011;43737;50.632;3.070;2022-08-11T19:00:47;4.95;;;3.22;;